createdAt,value
2019-04-10T14:54:02.202Z,37
2019-04-10T14:56:46.950Z,37
2019-04-10T14:57:11.158Z,37
2019-04-10T14:57:47.620Z,37
2019-04-10T14:58:33.999Z,38
2019-04-10T14:58:58.375Z,37
2019-04-10T14:59:34.356Z,37
2019-04-10T15:00:11.291Z,37
2019-04-10T15:00:47.334Z,38
2019-04-10T15:01:22.537Z,37
2019-04-10T15:01:58.608Z,38
2019-04-10T15:02:35.336Z,38
2019-04-10T15:03:10.404Z,37
2019-04-10T15:03:47.213Z,38
2019-04-10T15:04:22.340Z,38
2019-04-10T15:04:59.338Z,38
2019-04-10T15:05:53.679Z,38
2019-04-10T15:06:10.611Z,38
2019-04-10T15:06:46.448Z,38
2019-04-10T15:07:22.441Z,38
2019-04-10T15:07:59.233Z,38
2019-04-10T15:08:35.283Z,38
2019-04-10T15:09:26.265Z,39
2019-04-10T15:09:46.389Z,39
2019-04-10T15:10:22.390Z,39
2019-04-10T15:10:58.812Z,39
2019-04-10T15:11:35.407Z,38
2019-04-10T15:12:10.856Z,37
2019-04-10T15:12:46.382Z,37
2019-04-10T15:13:25.989Z,37
2019-04-10T15:13:59.402Z,38
2019-04-10T15:14:35.682Z,37
2019-04-10T15:15:10.688Z,37
2019-04-10T15:15:46.372Z,38
2019-04-10T15:16:23.357Z,38
2019-04-10T15:17:07.891Z,38
2019-04-10T15:17:34.498Z,37
2019-04-10T15:18:11.424Z,37
2019-04-10T15:18:46.389Z,38
2019-04-10T15:19:23.207Z,38
2019-04-10T15:19:59.135Z,38
2019-04-10T15:20:35.533Z,38
2019-04-10T15:21:10.854Z,38
2019-04-10T15:21:47.388Z,39
2019-04-10T15:22:23.742Z,39
2019-04-10T15:22:59.180Z,38
2019-04-10T15:23:34.324Z,38
2019-04-10T15:24:11.604Z,38
2019-04-10T15:24:47.456Z,38
2019-04-10T15:25:23.548Z,38
2019-04-10T15:25:58.290Z,38
2019-04-10T15:26:34.406Z,37
2019-04-10T15:27:11.666Z,38
2019-04-10T15:27:46.596Z,37
2019-04-10T15:28:23.494Z,37
2019-04-10T15:28:58.853Z,37
2019-04-10T15:29:34.396Z,38
2019-04-10T15:30:11.048Z,38
2019-04-10T15:30:47.157Z,38
2019-04-10T15:31:27.553Z,39
2019-04-10T15:31:58.408Z,39
2019-04-10T15:32:34.328Z,39
2019-04-10T15:33:10.683Z,38
2019-04-10T15:33:47.178Z,39
2019-04-10T15:34:23.087Z,38
2019-04-10T15:34:58.360Z,39
2019-04-10T15:35:35.400Z,39
2019-04-10T15:36:11.496Z,39
2019-04-10T15:36:49.842Z,40
2019-04-10T15:37:23.424Z,39
2019-04-10T15:37:58.426Z,40
2019-04-10T15:38:34.518Z,41
2019-04-10T15:39:11.182Z,41
2019-04-10T15:39:47.011Z,41
2019-04-10T15:40:28.613Z,41
2019-04-10T15:40:59.247Z,41
2019-04-10T15:41:35.404Z,41
2019-04-10T15:42:10.512Z,42
2019-04-10T15:42:46.596Z,41
2019-04-10T15:43:27.660Z,41
2019-04-10T15:43:59.241Z,42
2019-04-10T15:44:34.852Z,42
2019-04-10T15:45:11.131Z,42
2019-04-10T15:45:46.925Z,42
2019-04-10T15:46:22.361Z,42
2019-04-10T15:47:22.262Z,43
2019-04-10T15:47:35.533Z,43
2019-04-10T15:48:11.034Z,43
2019-04-10T15:48:46.588Z,44
2019-04-10T15:49:23.423Z,43
2019-04-10T15:49:58.420Z,44
2019-04-10T15:50:35.319Z,44
2019-04-10T15:51:10.409Z,44
2019-04-10T15:51:47.305Z,43
2019-04-10T15:52:23.493Z,43
2019-04-10T15:52:58.561Z,42
2019-04-10T15:53:35.034Z,42
2019-04-10T15:54:10.329Z,42
2019-04-10T15:54:46.428Z,42
2019-04-10T15:55:22.383Z,42
2019-04-10T15:55:58.367Z,43
2019-04-10T15:56:34.527Z,43
2019-04-10T15:57:11.354Z,43
2019-04-10T15:57:59.619Z,42
2019-04-10T15:58:23.440Z,42
2019-04-10T15:58:59.429Z,42
2019-04-10T15:59:35.000Z,42
2019-04-10T16:00:11.308Z,41
2019-04-10T16:00:47.609Z,41
2019-04-10T16:01:22.293Z,41
2019-04-10T16:01:59.639Z,40
2019-04-10T16:02:34.369Z,40
2019-04-10T16:03:11.514Z,39
2019-04-10T16:03:47.410Z,39
2019-04-10T16:04:23.510Z,39
2019-04-10T16:04:59.639Z,38
2019-04-10T16:05:34.441Z,38
2019-04-10T16:06:11.407Z,38
2019-04-10T16:06:47.591Z,38
2019-04-10T16:07:23.098Z,39
2019-04-10T16:07:59.220Z,39
2019-04-10T16:08:34.948Z,38
2019-04-10T16:09:10.352Z,39
2019-04-10T16:09:56.219Z,39
2019-04-10T16:10:23.388Z,39
2019-04-10T16:10:58.478Z,39
2019-04-10T16:11:34.609Z,39
2019-04-10T16:12:10.704Z,39
2019-04-10T16:12:46.307Z,39
2019-04-10T16:13:22.560Z,39
2019-04-10T16:13:59.517Z,39
2019-04-10T16:14:34.355Z,40
2019-04-10T16:15:11.425Z,40
2019-04-10T16:15:47.511Z,40
2019-04-10T16:16:23.528Z,41
2019-04-10T16:16:59.566Z,41
2019-04-10T16:17:34.409Z,42
2019-04-10T16:18:11.610Z,42
2019-04-10T16:18:46.952Z,41
2019-04-10T16:19:22.951Z,41
2019-04-10T16:19:58.276Z,41
2019-04-10T16:20:34.384Z,41
2019-04-10T16:21:10.885Z,42
2019-04-10T16:21:46.396Z,42
2019-04-10T16:22:23.396Z,42
2019-04-10T16:22:59.291Z,41
2019-04-10T16:23:35.422Z,41
2019-04-10T16:24:10.322Z,42
2019-04-10T16:24:47.387Z,42
2019-04-10T16:25:22.549Z,42
2019-04-10T16:25:59.223Z,42
2019-04-10T16:26:34.313Z,43
2019-04-10T16:27:10.299Z,42
2019-04-10T16:27:46.378Z,43
2019-04-10T16:28:23.378Z,42
2019-04-10T16:28:58.360Z,42
2019-04-10T16:29:34.824Z,42
2019-04-10T16:30:10.838Z,42
2019-04-10T16:30:47.226Z,43
2019-04-10T16:31:23.253Z,42
2019-04-10T16:31:58.295Z,42
2019-04-10T16:32:35.418Z,42
2019-04-10T16:33:11.451Z,43
2019-04-10T16:33:46.580Z,43
2019-04-10T16:34:23.219Z,43
2019-04-10T16:34:59.438Z,43
2019-04-10T16:35:38.537Z,43
2019-04-10T16:36:11.342Z,42
2019-04-10T16:36:46.414Z,43
2019-04-10T16:37:22.744Z,43
2019-04-10T16:37:58.728Z,43
2019-04-10T16:38:34.296Z,43
2019-04-10T16:39:11.289Z,43
2019-04-10T16:40:07.038Z,43
2019-04-10T16:40:23.230Z,43
2019-04-10T16:40:58.961Z,44
2019-04-10T16:41:35.372Z,44
2019-04-10T16:42:11.135Z,44
2019-04-10T16:42:47.342Z,45
2019-04-10T16:43:22.871Z,45
2019-04-10T16:43:58.258Z,45
2019-04-10T16:44:35.491Z,45
2019-04-10T16:45:10.765Z,45
2019-04-10T16:45:47.387Z,45
2019-04-10T16:46:22.395Z,45
2019-04-10T16:46:58.516Z,45
2019-04-10T16:47:34.879Z,45
2019-04-10T16:48:11.213Z,45
2019-04-10T16:48:46.838Z,45
2019-04-10T16:49:23.058Z,45
2019-04-10T16:49:59.514Z,45
2019-04-10T16:50:34.751Z,46
2019-04-10T16:51:10.618Z,46
2019-04-10T16:51:46.398Z,46
2019-04-10T16:52:23.561Z,46
2019-04-10T16:52:58.380Z,45
2019-04-10T16:53:34.698Z,45
2019-04-10T16:54:11.045Z,45
2019-04-10T16:54:46.367Z,46
2019-04-10T16:55:23.311Z,45
2019-04-10T16:55:59.577Z,46
2019-04-10T16:56:34.416Z,46
2019-04-10T16:57:10.598Z,46
2019-04-10T16:57:47.525Z,46
2019-04-10T16:58:23.385Z,47
2019-04-10T16:58:59.022Z,47
2019-04-10T16:59:34.573Z,47
2019-04-10T17:00:18.235Z,47
2019-04-10T17:00:47.715Z,47
2019-04-10T17:01:23.085Z,47
2019-04-10T17:02:00.255Z,47
2019-04-10T17:02:34.394Z,47
2019-04-10T17:03:11.308Z,47
2019-04-10T17:03:46.817Z,47
2019-04-10T17:04:23.352Z,47
2019-04-10T17:04:59.059Z,47
2019-04-10T17:05:35.728Z,48
2019-04-10T17:06:10.624Z,47
2019-04-10T17:06:46.954Z,48
2019-04-10T17:07:23.332Z,48
2019-04-10T17:07:59.536Z,48
2019-04-10T17:08:34.854Z,48
2019-04-10T17:09:10.827Z,48
2019-04-10T17:09:47.577Z,48
2019-04-10T17:10:28.755Z,48
2019-04-10T17:10:59.345Z,47
2019-04-10T17:11:34.291Z,47
2019-04-10T17:12:10.259Z,47
2019-04-10T17:12:46.859Z,47
2019-04-10T17:13:23.030Z,47
2019-04-10T17:13:59.513Z,47
2019-04-10T17:14:35.489Z,48
2019-04-10T17:15:12.113Z,47
2019-04-10T17:15:51.423Z,47
2019-04-10T17:16:22.429Z,47
2019-04-10T17:16:58.417Z,47
2019-04-10T17:17:35.162Z,47
2019-04-10T17:18:11.394Z,47
2019-04-10T17:18:47.481Z,48
2019-04-10T17:19:22.273Z,47
2019-04-10T17:20:02.123Z,47
2019-04-10T17:20:34.305Z,47
2019-04-10T17:21:11.608Z,48
2019-04-10T17:21:47.267Z,47
2019-04-10T17:22:45.635Z,47
2019-04-10T17:22:58.985Z,47
2019-04-10T17:23:35.023Z,48
2019-04-10T17:24:11.482Z,47
2019-04-10T17:24:47.667Z,48
2019-04-10T17:25:22.710Z,48
2019-04-10T17:25:58.842Z,48
2019-04-10T17:26:35.577Z,48
2019-04-10T17:27:11.674Z,48
2019-04-10T17:27:46.470Z,48
2019-04-10T17:28:26.324Z,48
2019-04-10T17:28:59.468Z,48
2019-04-10T17:29:34.333Z,48
2019-04-10T17:30:11.553Z,48
2019-04-10T17:30:46.950Z,49
2019-04-10T17:31:23.026Z,48
2019-04-10T17:31:59.540Z,49
2019-04-10T17:32:34.284Z,49
2019-04-10T17:33:11.491Z,49
2019-04-10T17:33:46.528Z,48
2019-04-10T17:34:23.494Z,49
2019-04-10T17:34:59.457Z,49
2019-04-10T17:35:34.303Z,49
2019-04-10T17:36:10.469Z,49
2019-04-10T17:36:47.789Z,49
2019-04-10T17:37:23.682Z,49
2019-04-10T17:37:58.693Z,49
2019-04-10T17:38:36.722Z,49
2019-04-10T17:39:11.666Z,49
2019-04-10T17:39:47.780Z,49
2019-04-10T17:40:46.253Z,49
2019-04-10T17:41:04.233Z,49
2019-04-10T17:41:35.647Z,49
2019-04-10T17:42:10.717Z,50
2019-04-10T17:42:46.880Z,49
2019-04-10T17:43:25.108Z,49
2019-04-10T17:44:02.877Z,49
2019-04-10T17:44:34.397Z,49
2019-04-10T17:45:10.610Z,49
2019-04-10T17:45:47.378Z,49
2019-04-10T17:46:23.331Z,48
2019-04-10T17:46:58.292Z,49
2019-04-10T17:47:34.249Z,49
2019-04-10T17:48:11.541Z,49
2019-04-10T17:48:46.745Z,49
2019-04-10T17:49:23.641Z,49
2019-04-10T17:49:58.617Z,49
2019-04-10T17:50:34.352Z,49
2019-04-10T17:51:10.463Z,49
2019-04-10T17:51:46.529Z,49
2019-04-10T17:52:23.415Z,49
2019-04-10T17:53:00.808Z,49
2019-04-10T17:53:35.410Z,49
2019-04-10T17:54:11.466Z,49
2019-04-10T17:54:47.385Z,49
2019-04-10T17:55:23.662Z,49
2019-04-10T17:55:58.580Z,49
2019-04-10T17:56:34.274Z,49
2019-04-10T17:57:11.287Z,49
2019-04-10T17:57:49.086Z,49
2019-04-10T17:58:22.600Z,49
2019-04-10T17:58:58.751Z,49
2019-04-10T17:59:34.800Z,49
2019-04-10T18:00:11.585Z,50
2019-04-10T18:00:47.538Z,50
2019-04-10T18:01:23.509Z,50
2019-04-10T18:01:59.528Z,50
2019-04-10T18:02:35.273Z,50
2019-04-10T18:03:11.481Z,50
2019-04-10T18:04:01.451Z,50
2019-04-10T18:04:22.698Z,50
2019-04-10T18:04:58.566Z,50
2019-04-10T18:05:35.514Z,50
2019-04-10T18:06:11.442Z,50
2019-04-10T18:06:49.716Z,50
2019-04-10T18:07:22.311Z,50
2019-04-10T18:07:59.194Z,50
2019-04-10T18:08:35.258Z,51
2019-04-10T18:09:10.354Z,50
2019-04-10T18:09:47.005Z,50
2019-04-10T18:10:23.130Z,50
2019-04-10T18:11:00.448Z,50
2019-04-10T18:11:34.367Z,50
2019-04-10T18:12:10.653Z,50
2019-04-10T18:12:46.633Z,50
2019-04-10T18:13:22.979Z,50
2019-04-10T18:13:59.204Z,50
2019-04-10T18:14:40.992Z,50
2019-04-10T18:15:11.245Z,50
2019-04-10T18:15:46.932Z,50
2019-04-10T18:16:22.641Z,50
2019-04-10T18:16:58.787Z,50
2019-04-10T18:17:35.596Z,50
2019-04-10T18:18:11.368Z,50
2019-04-10T18:18:48.961Z,50
2019-04-10T18:19:22.445Z,50
2019-04-10T18:19:59.261Z,50
2019-04-10T18:20:34.336Z,50
2019-04-10T18:21:11.163Z,50
2019-04-10T18:21:46.460Z,49
2019-04-10T18:22:23.133Z,49
2019-04-10T18:22:59.256Z,49
2019-04-10T18:23:34.337Z,49
2019-04-10T18:24:10.320Z,49
2019-04-10T18:24:47.234Z,49
2019-04-10T18:25:22.731Z,49
2019-04-10T18:25:58.907Z,49
2019-04-10T18:26:34.562Z,49
2019-04-10T18:27:10.396Z,49
2019-04-10T18:27:47.367Z,49
2019-04-10T18:28:22.532Z,49
2019-04-10T18:29:02.091Z,49
2019-04-10T18:29:35.545Z,50
2019-04-10T18:30:10.591Z,50
2019-04-10T18:30:46.666Z,50
2019-04-10T18:31:29.187Z,50
2019-04-10T18:32:02.731Z,49
2019-04-10T18:32:34.413Z,49
2019-04-10T18:33:10.506Z,49
2019-04-10T18:33:47.436Z,49
2019-04-10T18:34:22.283Z,49
2019-04-10T18:34:58.871Z,50
2019-04-10T18:35:35.498Z,50
2019-04-10T18:36:11.520Z,50
2019-04-10T18:36:52.364Z,50
2019-04-10T18:37:25.942Z,50
2019-04-10T18:38:01.396Z,49
2019-04-10T18:38:35.423Z,50
2019-04-10T18:39:15.419Z,49
2019-04-10T18:39:46.957Z,49
2019-04-10T18:40:23.562Z,50
2019-04-10T18:41:09.013Z,50
2019-04-10T18:41:34.458Z,50
2019-04-10T18:42:10.340Z,50
2019-04-10T18:42:47.183Z,50
2019-04-10T18:43:22.819Z,50
2019-04-10T18:43:59.072Z,50
2019-04-10T18:44:35.494Z,50
2019-04-10T18:45:11.430Z,50
2019-04-10T18:46:13.324Z,50
2019-04-10T18:46:24.230Z,50
2019-04-10T18:46:58.541Z,50
2019-04-10T18:47:39.501Z,51
2019-04-10T18:48:10.949Z,50
2019-04-10T18:48:49.567Z,51
2019-04-10T18:49:23.430Z,51
2019-04-10T18:49:58.575Z,50
2019-04-10T18:50:34.629Z,50
2019-04-10T18:51:13.875Z,51
2019-04-10T18:51:46.516Z,51
2019-04-10T18:52:23.354Z,51
2019-04-10T18:52:59.340Z,51
2019-04-10T18:53:35.441Z,51
2019-04-10T18:54:12.882Z,51
2019-04-10T18:54:46.326Z,51
2019-04-10T18:55:23.113Z,51
2019-04-10T18:55:58.269Z,51
2019-04-10T18:56:35.361Z,51
2019-04-10T18:57:10.428Z,51
2019-04-10T18:57:47.519Z,51
2019-04-10T18:58:23.317Z,51
2019-04-10T18:58:58.944Z,51
2019-04-10T18:59:34.958Z,51
2019-04-10T19:00:10.778Z,51
2019-04-10T19:00:46.761Z,51
2019-04-10T19:01:23.548Z,51
2019-04-10T19:01:59.409Z,51
2019-04-10T19:02:35.344Z,51
2019-04-10T19:03:10.353Z,51
2019-04-10T19:04:00.717Z,51
2019-04-10T19:04:22.986Z,51
2019-04-10T19:04:59.497Z,51
2019-04-10T19:05:34.522Z,51
2019-04-10T19:06:10.583Z,51
2019-04-10T19:06:47.274Z,51
2019-04-10T19:07:23.370Z,52
2019-04-10T19:07:59.323Z,52
2019-04-10T19:08:34.318Z,52
2019-04-10T19:09:28.055Z,52
2019-04-10T19:09:47.446Z,52
2019-04-10T19:10:22.664Z,52
2019-04-10T19:11:23.428Z,52
2019-04-10T19:11:38.355Z,52
2019-04-10T19:12:11.284Z,52
2019-04-10T19:12:46.354Z,52
2019-04-10T19:13:23.049Z,52
2019-04-10T19:13:59.629Z,52
2019-04-10T19:14:38.730Z,52
2019-04-10T19:15:11.275Z,52
2019-04-10T19:15:48.585Z,52
2019-04-10T19:16:23.189Z,53
2019-04-10T19:16:58.849Z,52
2019-04-10T19:17:35.705Z,53
2019-04-10T19:18:11.406Z,53
2019-04-10T19:18:47.720Z,53
2019-04-10T19:19:22.231Z,53
2019-04-10T19:19:59.278Z,53
2019-04-10T19:20:35.597Z,53
2019-04-10T19:21:11.278Z,53
2019-04-10T19:21:46.627Z,53
2019-04-10T19:22:22.328Z,53
2019-04-10T19:22:59.650Z,53
2019-04-10T19:23:34.549Z,53
2019-04-10T19:24:10.391Z,53
2019-04-10T19:24:46.942Z,53
2019-04-10T19:25:23.269Z,53
2019-04-10T19:25:59.337Z,54
2019-04-10T19:26:35.402Z,54
2019-04-10T19:27:10.318Z,54
2019-04-10T19:27:47.051Z,54
2019-04-10T19:28:40.937Z,54
2019-04-10T19:28:59.418Z,54
2019-04-10T19:29:34.403Z,54
2019-04-10T19:30:11.427Z,54
2019-04-10T19:30:46.295Z,54
2019-04-10T19:31:25.049Z,54
2019-04-10T19:31:58.856Z,54
2019-04-10T19:32:35.627Z,54
2019-04-10T19:33:10.642Z,54
2019-04-10T19:33:47.509Z,54
2019-04-10T19:34:23.642Z,54
2019-04-10T19:34:59.452Z,54
2019-04-10T19:35:35.352Z,54
2019-04-10T19:36:10.458Z,54
2019-04-10T19:36:46.534Z,54
2019-04-10T19:37:23.496Z,54
2019-04-10T19:37:58.354Z,54
2019-04-10T19:38:34.349Z,54
2019-04-10T19:39:10.330Z,54
2019-04-10T19:39:47.215Z,54
2019-04-10T19:40:23.466Z,55
2019-04-10T19:40:59.026Z,55
2019-04-10T19:41:41.906Z,55
2019-04-10T19:42:11.431Z,55
2019-04-10T19:42:46.439Z,55
2019-04-10T19:43:22.652Z,55
2019-04-10T19:43:59.474Z,55
2019-04-10T19:44:35.604Z,55
2019-04-10T19:45:10.452Z,55
2019-04-10T19:45:46.390Z,55
2019-04-10T19:46:22.283Z,55
2019-04-10T19:46:58.408Z,56
2019-04-10T19:47:35.262Z,56
2019-04-10T19:48:11.383Z,56
2019-04-10T19:48:53.363Z,56
2019-04-10T19:49:22.337Z,56
2019-04-10T19:49:59.448Z,56
2019-04-10T19:50:35.411Z,56
2019-04-10T19:51:10.602Z,56
2019-04-10T19:51:47.263Z,56
2019-04-10T19:52:23.008Z,57
2019-04-10T19:52:58.323Z,57
2019-04-10T19:53:35.347Z,57
2019-04-10T19:54:11.475Z,57
2019-04-10T19:54:47.410Z,57
2019-04-10T19:55:22.522Z,57
2019-04-10T19:55:58.391Z,57
2019-04-10T19:56:35.356Z,57
2019-04-10T19:57:10.404Z,57
2019-04-10T19:57:46.320Z,57
2019-04-10T19:58:22.409Z,57
2019-04-10T19:58:59.182Z,58
2019-04-10T19:59:35.619Z,58
2019-04-10T20:00:11.129Z,58
2019-04-10T20:00:47.060Z,58
2019-04-10T20:01:31.285Z,58
2019-04-10T20:01:58.777Z,58
2019-04-10T20:02:35.418Z,58
2019-04-10T20:03:11.425Z,58
2019-04-10T20:03:46.485Z,58
2019-04-10T20:04:22.398Z,58
2019-04-10T20:04:59.578Z,58
2019-04-10T20:05:34.282Z,58
2019-04-10T20:06:10.509Z,58
2019-04-10T20:06:47.343Z,58
2019-04-10T20:07:22.378Z,58
2019-04-10T20:07:58.278Z,58
2019-04-10T20:08:34.599Z,59
2019-04-10T20:09:11.078Z,59
2019-04-10T20:09:46.994Z,59
2019-04-10T20:10:23.341Z,59
2019-04-10T20:10:58.769Z,59
2019-04-10T20:11:52.878Z,59
2019-04-10T20:12:11.181Z,59
2019-04-10T20:12:46.294Z,59
2019-04-10T20:13:23.283Z,59
2019-04-10T20:14:02.099Z,59
2019-04-10T20:14:35.236Z,59
2019-04-10T20:15:10.612Z,59
2019-04-10T20:15:47.367Z,60
2019-04-10T20:16:23.347Z,59
2019-04-10T20:16:58.316Z,59
2019-04-10T20:17:34.303Z,59
2019-04-10T20:18:11.281Z,59
2019-04-10T20:18:46.311Z,60
2019-04-10T20:19:22.989Z,60
2019-04-10T20:20:00.262Z,59
2019-04-10T20:20:35.493Z,60
2019-04-10T20:21:10.565Z,60
2019-04-10T20:21:46.386Z,60
2019-04-10T20:22:23.489Z,60
2019-04-10T20:22:58.859Z,60
2019-04-10T20:23:34.589Z,60
2019-04-10T20:24:10.977Z,60
2019-04-10T20:24:47.413Z,60
2019-04-10T20:25:22.497Z,60
2019-04-10T20:25:59.326Z,60
2019-04-10T20:26:35.408Z,60
2019-04-10T20:27:10.493Z,60
2019-04-10T20:27:46.425Z,60
2019-04-10T20:28:23.304Z,60
2019-04-10T20:28:59.674Z,60
2019-04-10T20:29:35.260Z,60
2019-04-10T20:30:10.546Z,61
2019-04-10T20:30:46.320Z,61
2019-04-10T20:31:23.478Z,61
2019-04-10T20:31:58.443Z,61
2019-04-10T20:32:34.823Z,61
2019-04-10T20:33:11.032Z,61
2019-04-10T20:33:47.454Z,61
2019-04-10T20:34:23.513Z,61
2019-04-10T20:34:58.609Z,61
2019-04-10T20:35:34.657Z,61
2019-04-10T20:36:11.505Z,61
2019-04-10T20:36:47.505Z,61
2019-04-10T20:37:23.460Z,61
2019-04-10T20:37:59.402Z,61
2019-04-10T20:38:35.291Z,61
2019-04-10T20:39:10.243Z,61
2019-04-10T20:39:47.254Z,61
2019-04-10T20:40:22.697Z,61
2019-04-10T20:40:58.798Z,61
2019-04-10T20:41:55.359Z,61
2019-04-10T20:42:10.482Z,61
2019-04-10T20:42:47.188Z,61
2019-04-10T20:43:23.326Z,61
2019-04-10T20:43:59.431Z,61
2019-04-10T20:44:35.042Z,61
2019-04-10T20:45:11.070Z,61
2019-04-10T20:45:47.340Z,61
2019-04-10T20:46:22.833Z,61
2019-04-10T20:46:58.841Z,61
2019-04-10T20:47:35.462Z,61
2019-04-10T20:48:10.289Z,61
2019-04-10T20:48:47.298Z,61
2019-04-10T20:49:23.039Z,61
2019-04-10T20:49:59.491Z,61
2019-04-10T20:50:34.729Z,61
2019-04-10T20:51:10.500Z,61
2019-04-10T20:51:50.200Z,61
2019-04-10T20:52:22.655Z,61
2019-04-10T20:52:58.342Z,61
2019-04-10T20:53:34.382Z,61
2019-04-10T20:54:11.166Z,61
2019-04-10T20:54:47.401Z,61
2019-04-10T20:55:22.260Z,61
2019-04-10T20:55:58.376Z,61
2019-04-10T20:56:35.354Z,61
2019-04-10T20:57:11.529Z,61
2019-04-10T20:57:46.355Z,62
2019-04-10T20:58:22.578Z,62
2019-04-10T20:58:59.579Z,62
2019-04-10T20:59:35.468Z,62
2019-04-10T21:00:10.476Z,62
2019-04-10T21:00:47.559Z,62
2019-04-10T21:01:22.920Z,62
2019-04-10T21:01:58.387Z,62
2019-04-10T21:02:34.601Z,62
2019-04-10T21:03:11.667Z,62
2019-04-10T21:03:46.318Z,62
2019-04-10T21:04:23.420Z,62
2019-04-10T21:05:11.053Z,62
2019-04-10T21:05:34.362Z,62
2019-04-10T21:06:11.544Z,62
2019-04-10T21:06:46.597Z,62
2019-04-10T21:07:23.364Z,62
2019-04-10T21:07:58.338Z,62
2019-04-10T21:08:34.716Z,62
2019-04-10T21:09:11.349Z,62
2019-04-10T21:09:46.504Z,62
2019-04-10T21:10:23.451Z,62
2019-04-10T21:10:59.596Z,62
2019-04-10T21:11:35.315Z,63
2019-04-10T21:12:20.933Z,63
2019-04-10T21:12:46.446Z,63
2019-04-10T21:13:23.780Z,63
2019-04-10T21:13:59.249Z,63
2019-04-10T21:14:34.343Z,63
2019-04-10T21:15:11.716Z,63
2019-04-10T21:15:46.841Z,63
2019-04-10T21:16:23.331Z,63
2019-04-10T21:16:58.795Z,63
2019-04-10T21:17:34.613Z,63
2019-04-10T21:18:11.514Z,63
2019-04-10T21:18:46.723Z,63
2019-04-10T21:19:22.358Z,63
2019-04-10T21:19:58.515Z,63
2019-04-10T21:20:35.103Z,63
2019-04-10T21:21:10.861Z,63
2019-04-10T21:21:47.384Z,63
2019-04-10T21:22:22.969Z,63
2019-04-10T21:22:58.279Z,63
2019-04-10T21:23:34.258Z,64
2019-04-10T21:24:11.590Z,63
2019-04-10T21:24:46.351Z,64
2019-04-10T21:25:23.422Z,64
2019-04-10T21:25:59.459Z,64
2019-04-10T21:26:35.189Z,64
2019-04-10T21:27:11.513Z,64
2019-04-10T21:27:54.713Z,64
2019-04-10T21:28:23.133Z,64
2019-04-10T21:28:58.501Z,64
2019-04-10T21:29:34.651Z,64
2019-04-10T21:30:11.342Z,64
2019-04-10T21:30:47.096Z,64
2019-04-10T21:31:22.767Z,65
2019-04-10T21:31:59.514Z,65
2019-04-10T21:32:35.125Z,65
2019-04-10T21:33:10.526Z,65
2019-04-10T21:33:47.505Z,65
2019-04-10T21:34:22.437Z,65
2019-04-10T21:34:58.295Z,66
2019-04-10T21:35:35.484Z,66
2019-04-10T21:36:11.609Z,66
2019-04-10T21:36:46.323Z,66
2019-04-10T21:37:22.798Z,66
2019-04-10T21:37:59.627Z,66
2019-04-10T21:38:34.368Z,67
2019-04-10T21:39:13.774Z,67
2019-04-10T21:39:46.286Z,67
2019-04-10T21:40:23.280Z,67
2019-04-10T21:40:59.709Z,67
2019-04-10T21:41:35.218Z,67
2019-04-10T21:42:25.030Z,67
2019-04-10T21:42:47.315Z,67
2019-04-10T21:43:23.371Z,67
2019-04-10T21:43:58.502Z,68
2019-04-10T21:44:35.452Z,68
2019-04-10T21:45:10.478Z,68
2019-04-10T21:45:46.317Z,68
2019-04-10T21:46:22.728Z,68
2019-04-10T21:46:59.539Z,67
2019-04-10T21:47:35.299Z,68
2019-04-10T21:48:11.071Z,68
2019-04-10T21:48:47.368Z,68
2019-04-10T21:49:22.483Z,67
2019-04-10T21:49:58.361Z,67
2019-04-10T21:50:35.514Z,67
2019-04-10T21:51:11.396Z,67
2019-04-10T21:51:46.580Z,67
2019-04-10T21:52:23.284Z,67
2019-04-10T21:52:59.325Z,67
2019-04-10T21:53:38.777Z,67
2019-04-10T21:54:10.455Z,67
2019-04-10T21:55:00.345Z,66
2019-04-10T21:55:23.971Z,66
2019-04-10T21:55:58.312Z,66
2019-04-10T21:56:35.641Z,66
2019-04-10T21:57:10.327Z,66
2019-04-10T21:57:47.379Z,65
2019-04-10T21:58:22.543Z,66
2019-04-10T21:58:59.585Z,65
2019-04-10T21:59:35.140Z,66
2019-04-10T22:00:10.636Z,66
2019-04-10T22:00:46.267Z,66
2019-04-10T22:01:22.538Z,66
2019-04-10T22:01:59.514Z,66
2019-04-10T22:02:34.292Z,66
2019-04-10T22:03:11.514Z,66
2019-04-10T22:03:46.348Z,66
2019-04-10T22:04:24.929Z,66
2019-04-10T22:04:59.503Z,66
2019-04-10T22:05:35.158Z,66
2019-04-10T22:06:11.614Z,66
2019-04-10T22:06:47.529Z,66
2019-04-10T22:07:22.341Z,66
2019-04-10T22:07:59.346Z,66
2019-04-10T22:08:34.369Z,66
2019-04-10T22:09:10.973Z,66
2019-04-10T22:09:47.225Z,66
2019-04-10T22:10:22.372Z,66
2019-04-10T22:10:59.336Z,66
2019-04-10T22:11:34.500Z,66
2019-04-10T22:12:34.577Z,66
2019-04-10T22:12:52.703Z,66
2019-04-10T22:13:22.473Z,66
2019-04-10T22:13:58.332Z,66
2019-04-10T22:14:34.288Z,66
2019-04-10T22:15:11.255Z,66
2019-04-10T22:15:47.507Z,66
2019-04-10T22:16:22.603Z,66
2019-04-10T22:16:58.741Z,66
2019-04-10T22:17:34.742Z,66
2019-04-10T22:18:10.367Z,66
2019-04-10T22:18:46.345Z,66
2019-04-10T22:19:23.363Z,66
2019-04-10T22:19:59.659Z,66
2019-04-10T22:20:34.395Z,66
2019-04-10T22:21:10.561Z,66
2019-04-10T22:21:46.808Z,66
2019-04-10T22:22:23.045Z,66
2019-04-10T22:22:58.369Z,66
2019-04-10T22:23:34.869Z,66
2019-04-10T22:24:11.268Z,66
2019-04-10T22:24:46.871Z,66
2019-04-10T22:25:23.476Z,66
2019-04-10T22:25:58.327Z,66
2019-04-10T22:26:34.544Z,66
2019-04-10T22:27:11.590Z,66
2019-04-10T22:27:46.327Z,66
2019-04-10T22:28:23.497Z,66
2019-04-10T22:28:58.391Z,66
2019-04-10T22:29:35.312Z,66
2019-04-10T22:30:10.986Z,66
2019-04-10T22:30:46.331Z,66
2019-04-10T22:31:22.389Z,66
2019-04-10T22:31:58.374Z,66
2019-04-10T22:32:35.612Z,66
2019-04-10T22:33:10.307Z,66
2019-04-10T22:33:47.357Z,66
2019-04-10T22:34:22.672Z,66
2019-04-10T22:34:59.508Z,66
2019-04-10T22:35:34.327Z,66
2019-04-10T22:36:11.328Z,66
2019-04-10T22:36:47.654Z,66
2019-04-10T22:37:23.559Z,66
2019-04-10T22:37:58.304Z,66
2019-04-10T22:38:35.374Z,66
2019-04-10T22:39:11.473Z,66
2019-04-10T22:39:46.502Z,66
2019-04-10T22:40:23.504Z,66
2019-04-10T22:40:58.707Z,66
2019-04-10T22:41:36.743Z,66
2019-04-10T22:42:11.342Z,66
2019-04-10T22:42:50.988Z,66
2019-04-10T22:43:22.921Z,67
2019-04-10T22:43:58.462Z,67
2019-04-10T22:44:46.780Z,67
2019-04-10T22:45:10.671Z,67
2019-04-10T22:45:47.175Z,67
2019-04-10T22:46:22.395Z,67
2019-04-10T22:46:59.308Z,67
2019-04-10T22:47:34.481Z,67
2019-04-10T22:48:10.559Z,67
2019-04-10T22:48:46.335Z,67
2019-04-10T22:49:22.801Z,67
2019-04-10T22:49:58.399Z,67
2019-04-10T22:50:35.049Z,67
2019-04-10T22:51:11.656Z,67
2019-04-10T22:51:46.582Z,67
2019-04-10T22:52:22.457Z,67
2019-04-10T22:52:59.675Z,67
2019-04-10T22:53:34.489Z,67
2019-04-10T22:54:14.291Z,67
2019-04-10T22:54:46.886Z,67
2019-04-10T22:55:22.420Z,67
2019-04-10T22:55:58.983Z,67
2019-04-10T22:56:34.313Z,67
2019-04-10T22:57:10.999Z,67
2019-04-10T22:57:46.906Z,67
2019-04-10T22:58:22.316Z,67
2019-04-10T22:58:58.295Z,67
2019-04-10T22:59:35.424Z,67
2019-04-10T23:00:11.359Z,67
2019-04-10T23:00:46.597Z,67
2019-04-10T23:01:23.391Z,67
2019-04-10T23:02:11.641Z,67
2019-04-10T23:02:35.212Z,67
2019-04-10T23:03:11.378Z,67
2019-04-10T23:03:47.337Z,67
2019-04-10T23:04:22.748Z,67
2019-04-10T23:04:58.385Z,68
2019-04-10T23:05:35.029Z,68
2019-04-10T23:06:11.325Z,68
2019-04-10T23:06:47.460Z,68
2019-04-10T23:07:22.521Z,68
2019-04-10T23:07:59.580Z,68
2019-04-10T23:08:34.395Z,68
2019-04-10T23:09:10.398Z,68
2019-04-10T23:09:47.119Z,68
2019-04-10T23:10:22.365Z,68
2019-04-10T23:10:59.721Z,68
2019-04-10T23:11:46.203Z,68
2019-04-10T23:12:10.429Z,68
2019-04-10T23:13:04.785Z,68
2019-04-10T23:13:23.403Z,68
2019-04-10T23:13:59.049Z,69
2019-04-10T23:14:34.966Z,68
2019-04-10T23:15:11.566Z,69
2019-04-10T23:15:47.625Z,69
2019-04-10T23:16:22.695Z,69
2019-04-10T23:16:58.372Z,69
2019-04-10T23:17:35.349Z,69
2019-04-10T23:18:10.409Z,69
2019-04-10T23:18:46.363Z,69
2019-04-10T23:19:22.937Z,69
2019-04-10T23:19:59.104Z,69
2019-04-10T23:20:34.685Z,69
2019-04-10T23:21:10.460Z,69
2019-04-10T23:21:47.541Z,69
2019-04-10T23:22:22.488Z,70
2019-04-10T23:22:59.451Z,70
2019-04-10T23:23:35.403Z,70
2019-04-10T23:24:10.336Z,70
2019-04-10T23:24:46.307Z,70
2019-04-10T23:25:23.046Z,70
2019-04-10T23:25:59.108Z,70
2019-04-10T23:26:35.603Z,70
2019-04-10T23:27:11.406Z,70
2019-04-10T23:27:46.631Z,71
2019-04-10T23:28:23.394Z,71
2019-04-10T23:28:58.559Z,71